Time,TemperatureF,DewpointF,PressureIn,WindDirection,WindDirectionDegrees,WindSpeedMPH,WindSpeedGustMPH,Humidity,HourlyPrecipIn,Conditions,Clouds,dailyrainin,SoftwareType,DateUTC
2013-03-27 00:03:00,37.2,22.0,30.12,NE,43,4.0,10.0,54,0.00,,,0.00,weatherlink.com 1.10,2013-03-27 04:03:00,
2013-03-27 00:18:00,37.1,22.0,30.12,ENE,68,4.0,10.0,54,0.00,,,0.00,weatherlink.com 1.10,2013-03-27 04:18:00,
2013-03-27 00:33:00,36.6,22.0,30.12,NNE,32,3.0,6.0,56,0.00,,,0.00,weatherlink.com 1.10,2013-03-27 04:33:00,
2013-03-27 00:48:00,36.7,22.0,30.12,North,5,6.0,12.0,56,0.00,,,0.00,weatherlink.com 1.10,2013-03-27 04:48:00,
2013-03-27 01:03:00,36.7,22.0,30.11,NNE,16,4.0,13.0,56,0.00,,,0.00,weatherlink.com 1.10,2013-03-27 05:03:00,
2013-03-27 01:18:00,36.2,22.0,30.12,NW,305,2.0,4.0,57,0.00,,,0.00,weatherlink.com 1.10,2013-03-27 05:18:00,
2013-03-27 01:33:00,35.6,22.0,30.12,NW,304,3.0,4.0,58,0.00,,,0.00,weatherlink.com 1.10,2013-03-27 05:33:00,
2013-03-27 01:48:00,35.2,22.0,30.12,NNE,32,1.0,4.0,59,0.00,,,0.00,weatherlink.com 1.10,2013-03-27 05:48:00,
2013-03-27 02:03:00,35.1,22.0,30.12,NNE,28,2.0,3.0,60,0.00,,,0.00,weatherlink.com 1.10,2013-03-27 06:03:00,
2013-03-27 02:18:00,35.7,22.0,30.12,NW,321,4.0,9.0,58,0.00,,,0.00,weatherlink.com 1.10,2013-03-27 06:18:00,
2013-03-27 02:33:00,36.9,21.0,30.12,NW,320,1.0,9.0,54,0.00,,,0.00,weatherlink.com 1.10,2013-03-27 06:33:00,
2013-03-27 02:48:00,35.8,21.0,30.11,SSE,148,3.0,4.0,56,0.00,,,0.00,weatherlink.com 1.10,2013-03-27 06:48:00,
2013-03-27 03:03:00,34.4,22.0,30.11,NW,324,2.0,4.0,60,0.00,,,0.00,weatherlink.com 1.10,2013-03-27 07:03:00,
2013-03-27 03:19:00,33.3,22.0,30.11,WNW,300,0.0,2.0,63,0.00,,,0.00,weatherlink.com 1.10,2013-03-27 07:19:00,
2013-03-27 03:34:00,32.0,22.0,30.11,WNW,300,1.0,2.0,66,0.00,,,0.00,weatherlink.com 1.10,2013-03-27 07:34:00,
2013-03-27 03:49:00,32.0,22.0,30.12,NW,309,0.0,2.0,68,0.00,,,0.00,weatherlink.com 1.10,2013-03-27 07:49:00,
2013-03-27 04:04:00,30.5,22.0,30.12,NW,309,0.0,2.0,71,0.00,,,0.00,weatherlink.com 1.10,2013-03-27 08:04:00,
2013-03-27 04:19:00,29.3,22.0,30.11,NNE,30,0.0,2.0,73,0.00,,,0.00,weatherlink.com 1.10,2013-03-27 08:19:00,
2013-03-27 04:34:00,29.0,22.0,30.11,NNE,26,2.0,4.0,75,0.00,,,0.00,weatherlink.com 1.10,2013-03-27 08:34:00,
2013-03-27 04:49:00,29.0,22.0,30.11,NW,321,2.0,5.0,74,0.00,,,0.00,weatherlink.com 1.10,2013-03-27 08:49:00,
2013-03-27 05:04:00,31.3,22.0,30.11,WNW,296,0.0,5.0,69,0.00,,,0.00,weatherlink.com 1.10,2013-03-27 09:04:00,
2013-03-27 05:19:00,34.5,22.0,30.12,North,5,1.0,8.0,60,0.00,,,0.00,weatherlink.com 1.10,2013-03-27 09:19:00,
2013-03-27 05:34:00,35.7,21.0,30.12,WNW,288,4.0,12.0,56,0.00,,,0.00,weatherlink.com 1.10,2013-03-27 09:34:00,
2013-03-27 05:49:00,35.6,22.0,30.12,NE,46,2.0,10.0,57,0.00,,,0.00,weatherlink.com 1.10,2013-03-27 09:49:00,
2013-03-27 06:04:00,35.5,21.0,30.13,North,9,4.0,11.0,57,0.00,,,0.00,weatherlink.com 1.10,2013-03-27 10:04:00,
2013-03-27 06:19:00,35.3,21.0,30.13,NNE,22,3.0,10.0,57,0.00,,,0.00,weatherlink.com 1.10,2013-03-27 10:19:00,
2013-03-27 06:34:00,35.0,21.0,30.14,NNE,29,5.0,8.0,57,0.00,,,0.00,weatherlink.com 1.10,2013-03-27 10:34:00,
2013-03-27 06:49:00,35.4,21.0,30.13,North,5,13.0,13.0,55,0.00,,,0.00,weatherlink.com 1.10,2013-03-27 10:49:00,
2013-03-27 07:04:00,35.4,21.0,30.14,North,5,4.0,13.0,56,0.00,,,0.00,weatherlink.com 1.10,2013-03-27 11:04:00,
2013-03-27 07:19:00,35.3,21.0,30.14,NNE,26,4.0,8.0,57,0.00,,,0.00,weatherlink.com 1.10,2013-03-27 11:19:00,
2013-03-27 07:34:00,35.5,21.0,30.15,NNW,333,3.0,10.0,56,0.00,,,0.00,weatherlink.com 1.10,2013-03-27 11:34:00,
2013-03-27 07:49:00,35.5,21.0,30.16,North,355,2.0,8.0,57,0.00,,,0.00,weatherlink.com 1.10,2013-03-27 11:49:00,
2013-03-27 08:04:00,36.4,22.0,30.16,North,355,1.0,10.0,56,0.00,,,0.00,weatherlink.com 1.10,2013-03-27 12:04:00,
2013-03-27 08:19:00,37.1,22.0,30.16,NNW,328,5.0,10.0,55,0.00,,,0.00,weatherlink.com 1.10,2013-03-27 12:19:00,
2013-03-27 08:34:00,37.6,23.0,30.17,NW,321,5.0,7.0,55,0.00,,,0.00,weatherlink.com 1.10,2013-03-27 12:34:00,
2013-03-27 08:49:00,37.8,22.0,30.17,NNW,327,8.0,12.0,54,0.00,,,0.00,weatherlink.com 1.10,2013-03-27 12:49:00,
2013-03-27 09:05:00,38.1,23.0,30.17,NNW,333,5.0,11.0,54,0.00,,,0.00,weatherlink.com 1.10,2013-03-27 13:05:00,
2013-03-27 09:19:00,38.5,23.0,30.18,NNW,345,8.0,14.0,53,0.00,,,0.00,weatherlink.com 1.10,2013-03-27 13:19:00,
2013-03-27 09:34:00,39.6,23.0,30.18,NW,306,7.0,11.0,51,0.00,,,0.00,weatherlink.com 1.10,2013-03-27 13:34:00,
2013-03-27 09:50:00,40.3,23.0,30.18,WNW,288,8.0,12.0,51,0.00,,,0.00,weatherlink.com 1.10,2013-03-27 13:50:00,
2013-03-27 10:05:00,40.3,23.0,30.18,WNW,297,5.0,11.0,50,0.00,,,0.00,weatherlink.com 1.10,2013-03-27 14:05:00,
2013-03-27 10:20:00,41.1,23.0,30.18,NNW,344,6.0,10.0,49,0.00,,,0.00,weatherlink.com 1.10,2013-03-27 14:20:00,
2013-03-27 10:35:00,41.8,22.0,30.18,WNW,299,5.0,12.0,46,0.00,,,0.00,weatherlink.com 1.10,2013-03-27 14:35:00,
2013-03-27 10:50:00,41.5,23.0,30.18,North,5,9.0,13.0,48,0.00,,,0.00,weatherlink.com 1.10,2013-03-27 14:50:00,
2013-03-27 11:05:00,41.6,23.0,30.18,NNW,333,5.0,12.0,47,0.00,,,0.00,weatherlink.com 1.10,2013-03-27 15:05:00,
2013-03-27 11:20:00,42.5,23.0,30.18,WSW,255,2.0,14.0,46,0.00,,,0.00,weatherlink.com 1.10,2013-03-27 15:20:00,
2013-03-27 11:35:00,43.5,23.0,30.18,SW,235,5.0,9.0,45,0.00,,,0.00,weatherlink.com 1.10,2013-03-27 15:35:00,
2013-03-27 11:50:00,44.5,23.0,30.18,NNE,19,8.0,13.0,43,0.00,,,0.00,weatherlink.com 1.10,2013-03-27 15:50:00,
2013-03-27 12:05:00,43.9,23.0,30.18,ENE,74,2.0,9.0,44,0.00,,,0.00,weatherlink.com 1.10,2013-03-27 16:05:00,
2013-03-27 12:20:00,44.9,26.0,30.18,WNW,292,11.0,13.0,47,0.00,,,0.00,weatherlink.com 1.10,2013-03-27 16:20:00,
2013-03-27 12:35:00,44.4,23.0,30.18,West,269,5.0,8.0,43,0.00,,,0.00,weatherlink.com 1.10,2013-03-27 16:35:00,
2013-03-27 12:50:00,44.6,23.0,30.17,SSW,192,2.0,8.0,42,0.00,,,0.00,weatherlink.com 1.10,2013-03-27 16:50:00,
2013-03-27 13:05:00,45.3,23.0,30.17,WSW,249,8.0,10.0,42,0.00,,,0.00,weatherlink.com 1.10,2013-03-27 17:05:00,
2013-03-27 13:20:00,46.1,24.0,30.17,SW,225,4.0,12.0,42,0.00,,,0.00,weatherlink.com 1.10,2013-03-27 17:20:00,
2013-03-27 13:35:00,47.0,24.0,30.16,West,266,8.0,13.0,40,0.00,,,0.00,weatherlink.com 1.10,2013-03-27 17:35:00,
2013-03-27 13:50:00,47.5,23.0,30.16,SW,217,4.0,9.0,39,0.00,,,0.00,weatherlink.com 1.10,2013-03-27 17:50:00,
2013-03-27 14:05:00,47.7,25.0,30.15,NW,325,6.0,10.0,41,0.00,,,0.00,weatherlink.com 1.10,2013-03-27 18:05:00,
2013-03-27 14:20:00,48.0,25.0,30.15,WSW,248,4.0,8.0,40,0.00,,,0.00,weatherlink.com 1.10,2013-03-27 18:20:00,
2013-03-27 14:35:00,48.8,26.0,30.15,NNE,22,5.0,11.0,42,0.00,,,0.00,weatherlink.com 1.10,2013-03-27 18:35:00,
2013-03-27 14:50:00,49.0,27.0,30.14,NNE,18,7.0,13.0,42,0.00,,,0.00,weatherlink.com 1.10,2013-03-27 18:50:00,
2013-03-27 15:05:00,49.1,26.0,30.13,NW,306,6.0,11.0,41,0.00,,,0.00,weatherlink.com 1.10,2013-03-27 19:05:00,
2013-03-27 15:20:00,48.6,27.0,30.13,NE,36,8.0,13.0,43,0.00,,,0.00,weatherlink.com 1.10,2013-03-27 19:20:00,
2013-03-27 15:35:00,49.1,26.0,30.13,North,360,11.0,15.0,40,0.00,,,0.00,weatherlink.com 1.10,2013-03-27 19:35:00,
2013-03-27 15:50:00,48.4,25.0,30.13,NE,39,7.0,15.0,41,0.00,,,0.00,weatherlink.com 1.10,2013-03-27 19:50:00,
2013-03-27 16:05:00,48.1,25.0,30.12,WNW,298,3.0,10.0,40,0.00,,,0.00,weatherlink.com 1.10,2013-03-27 20:05:00,
2013-03-27 16:20:00,49.1,25.0,30.12,NE,42,5.0,10.0,39,0.00,,,0.00,weatherlink.com 1.10,2013-03-27 20:20:00,
2013-03-27 16:35:00,49.3,24.0,30.12,North,9,2.0,9.0,38,0.00,,,0.00,weatherlink.com 1.10,2013-03-27 20:35:00,
2013-03-27 16:50:00,49.4,25.0,30.11,NE,56,3.0,11.0,38,0.00,,,0.00,weatherlink.com 1.10,2013-03-27 20:50:00,
2013-03-27 17:05:00,49.4,25.0,30.11,NNE,25,5.0,8.0,39,0.00,,,0.00,weatherlink.com 1.10,2013-03-27 21:05:00,
2013-03-27 17:20:00,49.8,24.0,30.11,NNE,22,1.0,6.0,37,0.00,,,0.00,weatherlink.com 1.10,2013-03-27 21:20:00,
2013-03-27 17:35:00,49.7,24.0,30.11,NNE,33,5.0,8.0,37,0.00,,,0.00,weatherlink.com 1.10,2013-03-27 21:35:00,
2013-03-27 17:50:00,49.5,24.0,30.11,NNE,23,6.0,9.0,37,0.00,,,0.00,weatherlink.com 1.10,2013-03-27 21:50:00,
2013-03-27 18:05:00,49.0,24.0,30.11,NNE,19,7.0,11.0,38,0.00,,,0.00,weatherlink.com 1.10,2013-03-27 22:05:00,
2013-03-27 18:20:00,48.3,24.0,30.12,NNE,17,9.0,12.0,38,0.00,,,0.00,weatherlink.com 1.10,2013-03-27 22:20:00,
2013-03-27 18:35:00,47.8,24.0,30.12,North,351,7.0,11.0,40,0.00,,,0.00,weatherlink.com 1.10,2013-03-27 22:35:00,
2013-03-27 18:50:00,46.9,24.0,30.12,NNE,13,9.0,13.0,40,0.00,,,0.00,weatherlink.com 1.10,2013-03-27 22:50:00,
2013-03-27 19:05:00,46.3,24.0,30.13,NNW,348,2.0,13.0,41,0.00,,,0.00,weatherlink.com 1.10,2013-03-27 23:05:00,
2013-03-27 19:20:00,45.2,23.0,30.14,NNE,23,6.0,16.0,42,0.00,,,0.00,weatherlink.com 1.10,2013-03-27 23:20:00,
2013-03-27 19:35:00,43.9,23.0,30.15,NNE,27,3.0,16.0,44,0.00,,,0.00,weatherlink.com 1.10,2013-03-27 23:35:00,
2013-03-27 19:50:00,42.9,23.0,30.15,North,9,11.0,14.0,45,0.00,,,0.00,weatherlink.com 1.10,2013-03-27 23:50:00,
2013-03-27 20:05:00,42.3,23.0,30.16,North,349,0.0,15.0,46,0.00,,,0.00,weatherlink.com 1.10,2013-03-28 00:05:00,
2013-03-27 20:20:00,41.5,22.0,30.16,NNE,15,2.0,8.0,47,0.00,,,0.00,weatherlink.com 1.10,2013-03-28 00:20:00,
2013-03-27 20:35:00,40.8,23.0,30.16,NNW,346,3.0,6.0,49,0.00,,,0.00,weatherlink.com 1.10,2013-03-28 00:35:00,
2013-03-27 20:50:00,40.1,23.0,30.16,ENE,71,1.0,9.0,50,0.00,,,0.00,weatherlink.com 1.10,2013-03-28 00:50:00,
2013-03-27 21:05:00,39.7,22.0,30.16,ESE,102,2.0,5.0,50,0.00,,,0.00,weatherlink.com 1.10,2013-03-28 01:05:00,
2013-03-27 21:20:00,39.2,22.0,30.16,North,360,3.0,5.0,50,0.00,,,0.00,weatherlink.com 1.10,2013-03-28 01:20:00,
2013-03-27 21:35:00,39.1,22.0,30.16,NNE,13,2.0,5.0,51,0.00,,,0.00,weatherlink.com 1.10,2013-03-28 01:35:00,
2013-03-27 21:50:00,38.7,22.0,30.17,NNE,25,2.0,6.0,52,0.00,,,0.00,weatherlink.com 1.10,2013-03-28 01:50:00,
2013-03-27 22:05:00,38.9,22.0,30.17,NNW,333,0.0,7.0,52,0.00,,,0.00,weatherlink.com 1.10,2013-03-28 02:05:00,
2013-03-27 22:20:00,39.0,23.0,30.17,North,11,2.0,7.0,52,0.00,,,0.00,weatherlink.com 1.10,2013-03-28 02:20:00,
2013-03-27 22:35:00,38.9,22.0,30.17,NE,42,6.0,7.0,52,0.00,,,0.00,weatherlink.com 1.10,2013-03-28 02:35:00,
2013-03-27 22:50:00,38.9,22.0,30.18,NNE,13,5.0,9.0,52,0.00,,,0.00,weatherlink.com 1.10,2013-03-28 02:50:00,
2013-03-27 23:05:00,38.9,23.0,30.18,NE,38,5.0,10.0,53,0.00,,,0.00,weatherlink.com 1.10,2013-03-28 03:05:00,
2013-03-27 23:20:00,38.7,23.0,30.18,NNE,20,1.0,8.0,54,0.00,,,0.00,weatherlink.com 1.10,2013-03-28 03:20:00,
2013-03-27 23:35:00,38.2,23.0,30.18,North,360,1.0,7.0,55,0.00,,,0.00,weatherlink.com 1.10,2013-03-28 03:35:00,
2013-03-27 23:50:00,38.0,23.0,30.18,NNE,32,3.0,7.0,55,0.00,,,0.00,weatherlink.com 1.10,2013-03-28 03:50:00,